Time;durP1;ratioP1;P1;durP2;ratioP2;P2;SDS_P1;SDS_P2;PMS_P1;PMS_P2;Temp;Humidity;BMP_temperature;BMP_pressure;BME280_temperature;BME280_humidity;BME280_pressure;Samples;Min_cycle;Max_cycle;Signal;HPM_P1;HPM_P2
2022/08/04 00:02:06;;;;;;;4.23;3.90;;;20.90;94.00;;;21.38;60.96;95105.41;5017358;28;20983;-60
2022/08/04 00:04:39;;;;;;;3.80;3.60;;;20.90;94.10;;;21.33;60.73;95102.47;5022053;28;20535;-59
2022/08/04 00:07:09;;;;;;;4.53;4.03;;;20.90;94.20;;;21.29;61.04;95106.59;5019596;28;20554;-58
2022/08/04 00:09:39;;;;;;;4.10;3.70;;;20.80;94.20;;;21.26;60.92;95101.66;5020743;28;20453;-58
2022/08/04 00:12:07;;;;;;;5.33;3.73;;;20.80;94.20;;;21.20;61.33;95102.44;5019929;28;20484;-58
2022/08/04 00:14:35;;;;;;;6.67;4.40;;;20.70;94.20;;;21.19;60.97;95112.31;5024756;28;20492;-60
2022/08/04 00:17:05;;;;;;;4.23;3.80;;;20.70;94.40;;;21.16;61.43;95106.53;5023797;28;20476;-59
2022/08/04 00:19:38;;;;;;;3.93;3.60;;;20.70;94.60;;;21.13;61.82;95103.25;5021050;28;20599;-59
2022/08/04 00:22:07;;;;;;;5.83;3.50;;;20.70;94.70;;;21.13;61.91;95110.44;5024155;28;20476;-58
2022/08/04 00:24:34;;;;;;;4.67;4.27;;;20.70;94.90;;;21.09;61.75;95110.00;5023102;28;20504;-59
2022/08/04 00:27:02;;;;;;;3.97;3.73;;;20.60;94.90;;;21.07;61.81;95108.56;5020539;28;20586;-58
2022/08/04 00:29:29;;;;;;;4.50;3.40;;;20.60;95.10;;;21.07;61.86;95103.22;5021612;28;20461;-58
2022/08/04 00:31:56;;;;;;;7.10;4.23;;;20.60;95.10;;;21.07;61.94;95113.94;5023932;28;20499;-59
2022/08/04 00:34:25;;;;;;;5.20;4.33;;;20.50;95.20;;;21.05;62.06;95116.81;5018592;28;20523;-59
2022/08/04 00:36:54;;;;;;;3.90;3.50;;;20.60;95.40;;;21.06;61.83;95113.09;5019550;28;20491;-59
2022/08/04 00:39:22;;;;;;;7.03;3.90;;;20.60;95.40;;;21.07;62.29;95108.56;5020356;28;20522;-60
2022/08/04 00:42:33;;;;;;;4.13;3.73;;;20.60;95.50;;;21.07;62.70;95114.75;5020619;28;20493;-59
2022/08/04 00:45:34;;;;;;;4.03;3.43;;;20.60;95.50;;;21.07;62.74;95113.94;5020553;28;20491;-60
2022/08/04 00:48:10;;;;;;;4.03;3.73;;;20.60;95.70;;;21.07;62.04;95113.94;5022553;28;20923;-58
2022/08/04 00:50:44;;;;;;;8.03;4.40;;;20.60;95.60;;;21.06;62.08;95113.09;5019243;28;20492;-58
2022/08/04 00:53:19;;;;;;;3.60;3.30;;;20.50;95.70;;;21.11;62.07;95107.94;5022439;28;20536;-59
2022/08/04 00:56:22;;;;;;;3.57;3.27;;;20.60;95.60;;;21.10;62.67;95109.00;5021072;28;20816;-58
2022/08/04 00:59:02;;;;;;;4.70;4.27;;;20.60;95.60;;;21.11;62.21;95107.13;5020407;28;20450;-57
2022/08/04 01:01:55;;;;;;;5.20;3.90;;;20.60;95.60;;;21.09;62.51;95112.69;5020677;28;20472;-60
2022/08/04 01:04:30;;;;;;;4.93;4.53;;;20.60;95.70;;;21.09;62.25;95112.69;5020017;28;20448;-59
2022/08/04 01:07:15;;;;;;;4.40;4.10;;;20.60;95.70;;;21.08;62.22;95110.22;5020056;28;20527;-59
2022/08/04 01:09:52;;;;;;;4.60;4.20;;;20.60;95.80;;;21.08;62.52;95113.69;5020062;28;20452;-58
2022/08/04 01:12:49;;;;;;;4.40;4.00;;;20.60;95.80;;;21.08;62.51;95119.03;5022791;28;21019;-60
2022/08/04 01:15:20;;;;;;;4.67;4.27;;;20.60;96.00;;;21.07;61.95;95125.44;5018530;28;20454;-59
2022/08/04 01:18:00;;;;;;;6.37;4.40;;;20.60;95.80;;;21.06;62.44;95123.78;5021219;28;20558;-59
2022/08/04 01:20:30;;;;;;;4.47;4.17;;;20.60;95.90;;;21.04;62.22;95125.84;5019763;28;20576;-59
2022/08/04 01:23:30;;;;;;;3.73;3.50;;;20.50;95.90;;;21.04;62.57;95125.84;5025083;28;20554;-59
2022/08/04 01:26:41;;;;;;;3.77;3.43;;;20.60;96.00;;;21.05;62.22;95132.84;5021623;28;21191;-58
2022/08/04 01:29:10;;;;;;;5.50;4.07;;;20.50;95.80;;;21.02;62.08;95135.06;5022299;28;20461;-59
2022/08/04 01:31:50;;;;;;;9.80;3.60;;;20.50;95.70;;;20.98;61.84;95134.66;5021091;28;20485;-58
2022/08/04 01:34:19;;;;;;;7.53;3.20;;;20.50;95.70;;;20.94;61.71;95128.88;5020143;28;20965;-59
2022/08/04 01:36:50;;;;;;;4.13;3.93;;;20.50;95.50;;;20.90;61.72;95127.63;5020236;28;20480;-59
2022/08/04 01:42:01;;;;;;;3.33;3.00;;;20.40;95.50;;;20.82;61.83;95129.63;5016482;28;20476;-59
2022/08/04 01:44:30;;;;;;;4.10;3.80;;;20.40;95.60;;;20.80;61.90;95129.00;5022007;28;20992;-59
2022/08/04 01:46:57;;;;;;;6.33;3.83;;;20.30;95.60;;;20.80;61.92;95124.47;5018767;28;20481;-59
2022/08/04 01:49:24;;;;;;;3.77;3.47;;;20.30;95.60;;;20.80;61.64;95129.00;5024803;28;20457;-59
2022/08/04 01:51:52;;;;;;;3.30;3.10;;;20.30;95.60;;;20.78;61.85;95122.00;5017368;28;20484;-59
2022/08/04 01:54:19;;;;;;;3.70;3.40;;;20.30;95.50;;;20.76;61.82;95120.56;5022842;28;20451;-58
2022/08/04 01:56:47;;;;;;;8.60;3.77;;;20.30;95.50;;;20.73;61.53;95118.28;5022122;28;20550;-59
2022/08/04 01:59:15;;;;;;;4.77;3.67;;;20.30;95.50;;;20.72;61.64;95122.78;5023294;28;20459;-59
2022/08/04 02:01:44;;;;;;;9.60;4.50;;;20.30;95.50;;;20.71;61.32;95117.63;5019939;28;20538;-58
2022/08/04 02:04:14;;;;;;;5.60;3.80;;;20.20;95.40;;;20.69;61.27;95117.81;5023213;28;20534;-59
2022/08/04 02:06:49;;;;;;;5.40;3.70;;;20.20;95.40;;;20.65;61.51;95113.06;5015729;28;20478;-59
2022/08/04 02:09:22;;;;;;;3.70;3.50;;;20.20;95.30;;;20.56;61.36;95104.38;5015448;28;20465;-59
2022/08/04 02:11:57;;;;;;;3.90;3.63;;;20.10;95.10;;;20.46;61.31;95107.38;5016085;28;20473;-59
2022/08/04 02:14:40;;;;;;;3.63;3.40;;;20.00;95.20;;;20.37;61.61;95105.88;5019316;28;20518;-58
2022/08/04 02:17:11;;;;;;;3.80;3.53;;;20.00;95.20;;;20.27;62.21;95116.09;5021860;28;20480;-58
2022/08/04 02:19:58;;;;;;;3.70;3.40;;;19.90;95.40;;;20.17;62.57;95119.06;5018419;28;20464;-59
2022/08/04 02:22:26;;;;;;;4.30;4.00;;;19.80;95.60;;;20.15;62.54;95121.13;5017473;28;20478;-58
2022/08/04 02:24:58;;;;;;;4.00;3.70;;;19.70;95.80;;;20.14;62.26;95114.13;5021824;28;20911;-59
2022/08/04 02:27:29;;;;;;;4.63;4.00;;;19.70;96.00;;;20.16;62.50;95112.09;5021156;28;20531;-58
2022/08/04 02:29:59;;;;;;;4.10;3.90;;;19.70;96.20;;;20.17;62.66;95119.91;5022319;28;20793;-59
2022/08/04 02:32:30;;;;;;;3.77;3.50;;;19.70;96.50;;;20.18;62.28;95118.06;5016993;28;20879;-58
2022/08/04 02:35:00;;;;;;;4.93;4.43;;;19.70;96.20;;;20.16;62.15;95117.44;5017295;28;21035;-58
2022/08/04 02:37:28;;;;;;;6.90;3.40;;;19.70;96.00;;;20.15;62.54;95121.13;5020210;28;20469;-57
2022/08/04 02:39:55;;;;;;;5.70;3.00;;;19.70;96.10;;;20.13;62.19;95115.16;5020472;28;20489;-58
2022/08/04 02:42:22;;;;;;;3.53;3.27;;;19.70;96.20;;;20.14;62.31;95117.63;5016181;28;20848;-60
2022/08/04 02:44:50;;;;;;;3.80;3.60;;;19.70;96.20;;;20.15;62.80;95127.28;5021137;28;20464;-58
2022/08/04 02:47:18;;;;;;;4.30;3.90;;;19.70;96.30;;;20.15;62.82;95129.13;5016985;28;20477;-57
2022/08/04 02:49:46;;;;;;;3.67;3.37;;;19.70;96.20;;;20.12;62.07;95114.31;5020100;28;20514;-59
2022/08/04 02:52:14;;;;;;;4.03;3.73;;;19.70;96.20;;;20.12;62.43;95130.34;5021738;28;20554;-59
2022/08/04 02:54:42;;;;;;;4.30;4.00;;;19.70;96.30;;;20.11;62.14;95126.03;5018436;28;20468;-58
2022/08/04 02:57:11;;;;;;;4.20;3.90;;;19.70;96.30;;;20.11;62.43;95122.50;5021266;28;20575;-59
2022/08/04 02:59:49;;;;;;;4.80;4.00;;;19.60;96.30;;;20.10;62.54;95127.03;5016849;28;20938;-58
2022/08/04 03:02:16;;;;;;;5.30;4.00;;;19.60;96.40;;;20.10;62.45;95126.22;5015008;28;20472;-59
2022/08/04 03:04:51;;;;;;;6.20;4.57;;;19.60;96.40;;;20.09;62.85;95130.72;5018588;28;21027;-58
2022/08/04 03:08:12;;;;;;;4.00;3.73;;;19.60;96.40;;;20.12;63.09;95141.00;5020229;28;20464;-59
2022/08/04 03:11:23;;;;;;;4.57;3.90;;;19.70;96.70;;;20.14;63.15;95140.81;5020878;28;20495;-59
2022/08/04 03:14:37;;;;;;;4.87;4.23;;;19.70;96.50;;;20.16;63.31;95128.13;5019554;28;20976;-58
2022/08/04 03:17:31;;;;;;;4.70;4.20;;;19.70;96.50;;;20.17;62.60;95132.44;5017932;28;20472;-58
2022/08/04 03:20:53;;;;;;;11.53;4.30;;;19.70;96.40;;;20.18;62.53;95137.56;5015444;28;20568;-59
2022/08/04 03:23:55;;;;;;;4.10;3.80;;;19.70;96.20;;;20.15;62.05;95134.47;5021142;28;20839;-57
2022/08/04 03:27:09;;;;;;;5.33;3.17;;;19.70;95.90;;;20.10;62.06;95132.38;5017824;28;20532;-56
2022/08/04 03:30:08;;;;;;;3.20;3.10;;;19.70;95.80;;;20.08;61.94;95134.44;5021002;28;20523;-59
2022/08/04 03:33:25;;;;;;;4.13;3.83;;;19.60;95.60;;;20.03;61.62;95132.34;5014976;28;20509;-57
2022/08/04 03:36:23;;;;;;;9.83;4.53;;;19.60;95.60;;;19.98;61.87;95121.38;5018201;28;20468;-60
2022/08/04 03:39:28;;;;;;;4.80;3.43;;;19.60;95.60;;;19.92;61.73;95122.16;5017031;28;20454;-62
2022/08/04 03:42:14;;;;;;;4.43;3.20;;;19.50;95.70;;;19.88;62.30;95124.38;5015719;28;20597;-59
2022/08/04 03:45:21;;;;;;;4.73;4.33;;;19.40;95.70;;;19.86;61.93;95128.25;5016178;28;20531;-58
2022/08/04 03:48:30;;;;;;;5.77;5.27;;;19.50;95.80;;;19.83;62.35;95123.28;5020742;28;20468;-58
2022/08/04 03:55:05;;;;;;;5.73;4.30;;;19.40;95.90;;;19.76;62.59;95128.53;5022587;28;20890;-59
2022/08/04 03:58:35;;;;;;;4.47;4.17;;;19.30;96.10;;;19.76;62.33;95131.22;5019433;28;20469;-59
2022/08/04 04:01:13;;;;;;;9.30;4.70;;;19.30;96.30;;;19.76;62.08;95127.72;4973355;28;20568;-58
2022/08/04 04:04:20;;;;;;;5.47;4.43;;;19.30;96.10;;;19.79;62.64;95127.38;5018342;28;20552;-57
2022/08/04 04:07:46;;;;;;;6.50;3.87;;;19.30;96.30;;;19.84;63.05;95140.97;5015247;28;20547;-58
2022/08/04 04:10:38;;;;;;;8.43;4.80;;;19.40;96.30;;;19.91;62.17;95141.88;4974316;28;20452;-59
2022/08/04 04:13:19;;;;;;;5.80;4.70;;;19.40;96.30;;;20.02;62.43;95143.22;5020966;28;20485;-59
2022/08/04 04:16:09;;;;;;;8.30;5.83;;;19.50;96.40;;;20.11;62.05;95136.72;5017341;28;21035;-60
2022/08/04 04:18:54;;;;;;;9.23;5.00;;;19.60;96.30;;;20.20;62.15;95143.56;5016168;28;20457;-60
2022/08/04 04:21:42;;;;;;;7.30;5.30;;;19.70;96.20;;;20.28;62.28;95141.75;5014920;28;20558;-58
2022/08/04 04:24:49;;;;;;;4.67;3.87;;;19.80;96.30;;;20.37;62.11;95141.44;5017818;28;20453;-59
2022/08/04 04:27:26;;;;;;;5.93;4.90;;;19.90;96.40;;;20.46;61.91;95143.97;5009476;28;20607;-59
2022/08/04 04:30:07;;;;;;;14.50;4.90;;;20.00;96.20;;;20.56;61.78;95139.09;5018807;28;20518;-60
2022/08/04 04:33:08;;;;;;;5.30;4.80;;;20.00;96.10;;;20.62;61.81;95137.47;5017573;28;21040;-60
2022/08/04 04:35:41;;;;;;;9.37;5.67;;;20.10;96.20;;;20.74;61.51;95144.81;5020560;28;20533;-59
2022/08/04 04:38:58;;;;;;;26.93;8.47;;;20.20;96.00;;;20.83;61.67;95142.78;5018381;28;20460;-59
2022/08/04 04:41:45;;;;;;;11.00;5.00;;;20.30;96.20;;;20.92;61.30;95151.50;5015823;28;20497;-57
2022/08/04 04:44:36;;;;;;;9.13;5.83;;;20.40;95.90;;;20.97;61.53;95156.25;5018446;28;20449;-57
2022/08/04 04:47:09;;;;;;;5.90;5.30;;;20.50;95.80;;;20.99;61.17;95148.84;5017249;28;20469;-60
2022/08/04 04:49:44;;;;;;;17.60;5.30;;;20.50;95.70;;;20.99;60.97;95148.84;5020887;28;20510;-58
2022/08/04 04:52:17;;;;;;;7.00;5.80;;;20.50;95.80;;;20.97;61.53;95150.91;5020862;28;20467;-59
2022/08/04 04:54:53;;;;;;;6.27;5.10;;;20.50;95.80;;;20.94;61.58;95150.28;5021818;28;20441;-59
2022/08/04 04:57:22;;;;;;;12.10;5.10;;;20.50;95.80;;;20.92;61.15;95154.97;5024248;28;20473;-58
2022/08/04 04:59:55;;;;;;;6.17;5.57;;;20.50;95.70;;;20.92;61.17;95154.97;5024142;28;20448;-60
2022/08/04 05:02:59;;;;;;;12.83;4.93;;;20.50;95.80;;;20.93;61.44;95156.63;5024415;28;20864;-59
2022/08/04 05:05:33;;;;;;;7.63;5.10;;;20.50;95.70;;;20.95;61.31;95154.59;5021182;28;20448;-60
2022/08/04 05:08:38;;;;;;;5.80;5.30;;;20.50;95.70;;;20.97;61.74;95153.56;5021118;28;20535;-59
2022/08/04 05:11:44;;;;;;;9.50;5.80;;;20.50;95.90;;;20.98;61.54;95163.25;5022751;28;20480;-59
2022/08/04 05:14:18;;;;;;;8.20;5.70;;;20.50;95.90;;;20.99;61.46;95155.03;5003461;28;20853;-59
2022/08/04 05:16:47;;;;;;;4.73;4.40;;;20.50;95.90;;;21.01;61.28;95155.66;5022358;28;21035;-59
2022/08/04 05:19:22;;;;;;;13.00;5.47;;;20.50;95.90;;;21.04;61.87;95160.59;5020940;28;20497;-58
2022/08/04 05:21:53;;;;;;;5.70;5.20;;;20.60;96.10;;;21.07;61.31;95152.19;5020275;28;20496;-60
2022/08/04 05:24:21;;;;;;;7.90;5.23;;;20.60;96.00;;;21.12;61.20;95154.25;5023251;28;20510;-59
2022/08/04 05:26:55;;;;;;;10.43;6.37;;;20.60;96.00;;;21.22;61.20;95159.25;5021148;28;21354;-60
2022/08/04 05:29:28;;;;;;;6.13;5.53;;;20.70;96.00;;;21.30;61.51;95159.06;5019469;28;20530;-59
2022/08/04 05:31:55;;;;;;;10.00;6.30;;;20.80;96.10;;;21.36;61.51;95162.81;5019724;28;20538;-59
2022/08/04 05:34:24;;;;;;;5.87;5.37;;;20.90;96.10;;;21.38;60.79;95164.25;5023615;28;20457;-58
2022/08/04 05:36:55;;;;;;;5.83;5.30;;;20.80;95.70;;;21.43;60.73;95161.00;5019943;28;20474;-59
2022/08/04 05:39:24;;;;;;;5.80;5.40;;;20.90;95.90;;;21.46;61.00;95161.41;5022125;28;20448;-59
2022/08/04 05:41:51;;;;;;;6.27;5.67;;;21.00;95.80;;;21.52;60.83;95157.13;5020804;28;20555;-59
2022/08/04 05:44:20;;;;;;;7.10;5.90;;;21.00;95.70;;;21.59;60.98;95165.19;5019698;28;20864;-60
2022/08/04 05:46:51;;;;;;;14.53;7.53;;;21.10;95.80;;;21.71;61.35;95166.25;5021386;28;21004;-59
2022/08/04 05:49:18;;;;;;;7.23;6.50;;;21.20;96.10;;;21.92;61.07;95177.81;5022071;28;20457;-60
2022/08/04 05:51:46;;;;;;;9.10;6.23;;;21.30;96.10;;;22.09;60.37;95171.06;5021696;28;20473;-58
2022/08/04 05:54:13;;;;;;;11.60;6.27;;;21.50;95.80;;;22.37;60.13;95175.47;5024537;28;20559;-58
2022/08/04 05:56:40;;;;;;;15.67;8.40;;;21.70;95.70;;;22.64;60.03;95170.91;5020642;28;20559;-59
2022/08/04 05:59:09;;;;;;;8.83;6.37;;;22.00;95.40;;;22.91;58.87;95174.38;5020975;28;20458;-60
2022/08/04 06:01:36;;;;;;;10.87;6.90;;;22.20;94.90;;;23.18;59.11;95177.03;5019325;28;20590;-59
2022/08/04 06:04:05;;;;;;;12.90;6.00;;;22.50;94.70;;;23.44;57.54;95177.97;5019192;28;20868;-59
2022/08/04 06:06:32;;;;;;;7.20;6.13;;;22.70;94.10;;;23.65;57.41;95178.72;5021651;28;20819;-59
2022/08/04 06:09:00;;;;;;;25.40;7.30;;;23.00;93.70;;;23.87;57.62;95179.22;5017534;28;20450;-60
2022/08/04 06:11:27;;;;;;;11.00;6.60;;;23.20;93.60;;;24.03;56.31;95177.88;5021735;28;20477;-58
2022/08/04 06:13:57;;;;;;;7.53;6.07;;;23.40;92.90;;;24.11;56.04;95177.66;5018607;28;20541;-60
2022/08/04 06:16:26;;;;;;;8.10;7.40;;;23.50;92.80;;;24.25;56.55;95179.19;5020516;28;20542;-61
2022/08/04 06:18:56;;;;;;;11.43;7.83;;;23.60;92.60;;;24.37;56.19;95179.34;5019680;28;20537;-60
2022/08/04 06:21:27;;;;;;;11.83;7.10;;;23.70;92.30;;;24.50;55.87;95179.22;5017936;28;21600;-60
2022/08/04 06:23:55;;;;;;;15.63;7.60;;;23.90;92.00;;;24.55;55.18;95188.50;5021631;28;20453;-60
2022/08/04 06:26:22;;;;;;;10.60;8.53;;;23.90;91.80;;;24.60;55.25;95184.16;5022741;28;20546;-60
2022/08/04 06:28:51;;;;;;;11.40;7.10;;;24.00;91.80;;;24.68;55.18;95183.84;5023877;28;20515;-59
2022/08/04 06:31:31;;;;;;;8.43;7.63;;;24.10;91.70;;;24.78;54.79;95182.53;5017355;28;20469;-59
2022/08/04 06:34:01;;;;;;;9.03;7.07;;;24.20;91.50;;;24.82;54.94;95178.38;5018017;28;20834;-59
2022/08/04 06:36:30;;;;;;;17.37;6.83;;;24.30;91.40;;;24.87;54.75;95176.63;5021708;28;20541;-59
2022/08/04 06:38:59;;;;;;;13.23;7.90;;;24.30;91.30;;;24.93;54.67;95174.94;5017904;28;20453;-59
2022/08/04 06:41:26;;;;;;;8.50;7.60;;;24.30;91.20;;;25.04;55.19;95179.59;5020443;28;20534;-59
2022/08/04 06:43:53;;;;;;;9.30;7.23;;;24.40;91.20;;;25.20;55.06;95185.44;5018599;28;20489;-60
2022/08/04 06:46:21;;;;;;;10.43;7.70;;;24.60;91.20;;;25.41;54.58;95179.63;5021075;28;20464;-60
2022/08/04 06:48:48;;;;;;;15.97;7.23;;;24.80;91.10;;;25.67;53.92;95174.97;5016960;28;20815;-60
2022/08/04 06:51:15;;;;;;;8.40;7.50;;;25.00;90.70;;;25.93;53.64;95173.81;5020774;28;20480;-60
2022/08/04 06:53:45;;;;;;;8.57;7.87;;;25.20;90.70;;;26.18;53.35;95170.16;5021163;28;20449;-60
2022/08/04 06:56:12;;;;;;;7.43;6.73;;;25.50;90.20;;;26.36;52.42;95176.53;5017183;28;20480;-60
2022/08/04 06:58:39;;;;;;;13.63;7.00;;;25.60;88.80;;;26.46;52.34;95177.59;5020436;28;20459;-59
2022/08/04 07:01:07;;;;;;;10.37;7.60;;;25.70;88.00;;;26.58;51.97;95174.91;5018061;28;20989;-59
2022/08/04 07:03:34;;;;;;;7.80;7.10;;;25.90;87.60;;;26.74;51.95;95176.16;5019283;28;20460;-60
2022/08/04 07:06:01;;;;;;;8.87;6.03;;;26.00;86.60;;;26.90;51.61;95182.72;5019982;28;20448;-59
2022/08/04 07:08:29;;;;;;;7.13;6.03;;;26.20;86.10;;;27.03;51.17;95173.53;5020784;28;20552;-60
2022/08/04 07:10:57;;;;;;;12.93;6.20;;;26.30;85.40;;;27.14;50.84;95177.28;5017315;28;20453;-60
2022/08/04 07:13:25;;;;;;;10.00;5.60;;;26.50;84.70;;;27.24;51.04;95171.31;5016289;28;20459;-59
2022/08/04 07:15:52;;;;;;;5.60;5.13;;;26.60;84.20;;;27.31;50.57;95172.88;5018420;28;20453;-59
2022/08/04 07:18:19;;;;;;;6.70;6.10;;;26.70;83.80;;;27.41;50.32;95166.03;5019905;28;20460;-59
2022/08/04 07:20:47;;;;;;;6.77;5.30;;;26.80;83.20;;;27.51;50.06;95175.19;5016118;28;21107;-60
2022/08/04 07:23:18;;;;;;;6.00;5.40;;;26.90;82.60;;;27.65;49.96;95172.19;5021528;28;20464;-59
2022/08/04 07:25:50;;;;;;;6.90;6.30;;;27.00;81.70;;;27.75;49.86;95166.16;5021250;28;20448;-59
2022/08/04 07:28:19;;;;;;;8.20;6.73;;;27.10;81.00;;;27.78;49.51;95163.81;5020852;28;20826;-60
2022/08/04 07:30:47;;;;;;;7.77;6.10;;;27.20;79.80;;;27.79;49.50;95159.22;5018304;28;20460;-59
2022/08/04 07:33:14;;;;;;;10.30;5.47;;;27.20;79.50;;;27.86;48.94;95159.91;5019237;28;20468;-59
2022/08/04 07:35:42;;;;;;;5.97;5.37;;;27.20;79.10;;;27.94;49.19;95161.41;5017552;28;20487;-61
2022/08/04 07:38:10;;;;;;;6.10;5.50;;;27.30;79.20;;;28.00;49.00;95158.56;5020560;28;20952;-59
2022/08/04 07:40:37;;;;;;;5.70;5.20;;;27.30;78.90;;;28.06;49.03;95151.38;5017137;28;20475;-61
2022/08/04 07:43:05;;;;;;;6.23;5.63;;;27.40;78.40;;;28.14;48.21;95156.38;5018375;28;20506;-60
2022/08/04 07:45:34;;;;;;;5.73;5.23;;;27.50;77.80;;;28.21;48.55;95153.50;5019156;28;20456;-60
2022/08/04 07:48:02;;;;;;;8.67;6.23;;;27.60;77.50;;;28.25;48.10;95157.38;5019448;28;20779;-60
2022/08/04 07:50:30;;;;;;;6.30;5.50;;;27.60;76.60;;;28.25;48.19;95154.66;5016863;28;20451;-60
2022/08/04 07:52:57;;;;;;;7.73;5.27;;;27.60;75.50;;;28.23;47.82;95159.53;5024662;28;21022;-59
2022/08/04 07:55:25;;;;;;;15.43;6.63;;;27.60;75.60;;;28.21;48.04;95158.91;5017355;28;20452;-58
2022/08/04 07:57:52;;;;;;;6.97;6.27;;;27.60;75.20;;;28.17;47.79;95164.00;5021955;28;20468;-60
2022/08/04 08:00:19;;;;;;;6.37;5.80;;;27.60;74.70;;;28.21;47.88;95157.06;5017061;28;20453;-61
2022/08/04 08:02:49;;;;;;;7.90;6.53;;;27.60;75.00;;;28.28;48.16;95153.38;5019658;28;20892;-59
2022/08/04 08:05:18;;;;;;;8.07;7.27;;;27.60;74.20;;;28.33;47.80;95151.56;5016034;28;21009;-60
2022/08/04 08:07:47;;;;;;;8.83;6.67;;;27.70;74.10;;;28.39;47.17;95144.34;5016961;28;20604;-60
2022/08/04 08:10:15;;;;;;;8.23;6.40;;;27.70;73.60;;;28.39;47.67;95144.34;5019172;28;20539;-60
2022/08/04 08:12:42;;;;;;;9.40;7.00;;;27.80;73.30;;;28.41;46.96;95153.03;5017436;28;20473;-59
2022/08/04 08:15:11;;;;;;;8.33;4.97;;;27.80;72.90;;;28.46;47.18;95149.59;5019550;28;20531;-60
2022/08/04 08:17:39;;;;;;;7.20;6.00;;;27.80;72.60;;;28.52;46.63;95154.88;5013900;28;20527;-60
2022/08/04 08:20:10;;;;;;;7.73;5.97;;;27.90;71.80;;;28.52;46.83;95154.03;5019083;28;20965;-61
2022/08/04 08:22:37;;;;;;;9.63;5.60;;;27.90;71.70;;;28.58;46.95;95148.50;5017332;28;21004;-60
2022/08/04 08:25:06;;;;;;;6.93;6.23;;;27.90;71.90;;;28.80;46.48;95158.59;5021723;28;20452;-60
2022/08/04 08:27:33;;;;;;;7.77;6.50;;;28.10;71.90;;;29.15;45.97;95157.44;5022911;28;21012;-61
2022/08/04 08:30:01;;;;;;;6.00;5.50;;;28.40;71.30;;;29.49;45.51;95160.09;5021152;28;20447;-60
2022/08/04 08:32:28;;;;;;;7.80;5.87;;;28.70;70.50;;;29.80;45.81;95157.78;5019775;28;20476;-60
2022/08/04 08:34:55;;;;;;;5.57;4.90;;;29.00;69.70;;;30.16;45.43;95163.56;5024477;28;20511;-59
2022/08/04 08:37:32;;;;;;;11.33;5.20;;;29.40;69.10;;;30.50;44.75;95166.09;5019954;28;20506;-61
2022/08/04 08:40:08;;;;;;;5.83;5.33;;;29.70;67.90;;;30.69;43.65;95155.66;5020228;28;20578;-59
2022/08/04 08:43:40;;;;;;;15.07;5.60;;;29.90;66.40;;;30.79;42.55;95163.06;5021373;28;20271;-61
2022/08/04 08:46:39;;;;;;;7.97;4.30;;;30.10;64.60;;;30.78;42.55;95161.44;5018653;28;20225;-63
2022/08/04 08:49:42;;;;;;;5.50;5.10;;;30.10;63.10;;;30.73;42.26;95157.59;5021271;28;20632;-59
2022/08/04 08:52:25;;;;;;;6.80;5.30;;;30.10;62.40;;;30.66;42.04;95161.59;5020114;28;20237;-60
2022/08/04 08:55:00;;;;;;;6.80;4.60;;;30.00;62.30;;;30.64;43.10;95156.44;5023446;28;20209;-59
2022/08/04 08:57:47;;;;;;;4.70;4.20;;;30.00;62.40;;;30.65;42.01;95163.50;5019749;28;20233;-61
2022/08/04 09:00:18;;;;;;;4.77;4.23;;;30.00;62.30;;;30.66;42.26;95157.00;5018349;28;20202;-61
2022/08/04 09:03:35;;;;;;;6.60;4.67;;;30.00;62.40;;;30.67;42.63;95150.47;5022656;28;20237;-60
2022/08/04 09:06:41;;;;;;;6.50;4.90;;;30.00;61.70;;;30.68;42.17;95152.13;5020617;28;20209;-59
2022/08/04 09:09:53;;;;;;;9.70;5.80;;;30.00;61.80;;;30.67;41.95;95150.47;5021281;28;20674;-62
2022/08/04 09:12:27;;;;;;;7.43;4.30;;;30.00;60.90;;;30.71;42.44;95150.78;5020889;28;20229;-60
2022/08/04 09:15:01;;;;;;;7.70;5.40;;;30.00;61.20;;;30.80;42.17;95148.41;5019973;28;20198;-60
2022/08/04 09:17:32;;;;;;;7.47;6.00;;;30.10;60.60;;;30.91;41.80;95147.41;5023238;28;20318;-60
2022/08/04 09:20:03;;;;;;;12.33;4.57;;;30.20;60.00;;;31.06;42.04;95147.53;5016275;28;20212;-59
2022/08/04 09:22:37;;;;;;;6.47;4.07;;;30.30;60.30;;;31.26;41.07;95143.28;5019167;28;20248;-59
2022/08/04 09:25:11;;;;;;;4.67;4.27;;;30.50;59.90;;;31.42;41.30;95136.03;5022295;28;20653;-60
2022/08/04 09:27:46;;;;;;;8.00;4.17;;;30.70;59.50;;;31.56;40.74;95142.66;5018590;28;20264;-60
2022/08/04 09:30:18;;;;;;;5.13;3.87;;;30.80;58.70;;;31.69;40.96;95135.88;5022876;28;20207;-60
2022/08/04 09:32:52;;;;;;;4.50;4.03;;;31.00;58.60;;;31.77;40.25;95124.47;5019031;28;20225;-60
2022/08/04 09:35:29;;;;;;;13.07;4.47;;;31.10;57.70;;;31.91;39.76;95134.88;5020305;28;20209;-57
2022/08/04 09:38:04;;;;;;;6.17;3.53;;;31.20;57.10;;;32.03;39.14;95127.28;5021329;28;20604;-61
2022/08/04 09:40:40;;;;;;;6.77;3.37;;;31.30;56.20;;;32.04;38.57;95126.19;5018542;28;20204;-59
2022/08/04 09:43:16;;;;;;;4.17;3.87;;;31.40;55.80;;;32.09;38.82;95136.28;5022206;28;20488;-59
2022/08/04 09:45:48;;;;;;;4.88;3.20;;;31.40;55.40;;;32.16;38.96;95136.84;5019370;28;20644;-58
2022/08/04 09:48:20;;;;;;;3.35;3.05;;;31.40;55.20;;;32.30;38.73;95124.38;5022716;28;20237;-61
2022/08/04 09:50:47;;;;;;;3.10;2.70;;;31.60;55.00;;;32.47;37.93;95123.25;5019286;28;20202;-60
2022/08/04 09:53:28;;;;;;;8.88;2.92;;;31.70;54.30;;;32.60;37.53;95128.16;5027306;28;20202;-59
2022/08/04 09:56:03;;;;;;;12.63;3.53;;;31.90;53.70;;;32.79;37.30;95133.09;5022785;28;20628;-60
2022/08/04 09:58:46;;;;;;;5.38;2.72;;;32.00;53.20;;;32.95;36.25;95131.16;5022384;28;20272;-59
2022/08/04 10:01:17;;;;;;;4.30;2.78;;;32.20;52.20;;;33.09;36.74;95121.31;5022178;28;20221;-60
2022/08/04 10:03:49;;;;;;;8.70;2.90;;;32.30;52.20;;;33.27;36.25;95116.41;5021015;28;20214;-58
2022/08/04 10:06:37;;;;;;;5.40;2.58;;;32.50;51.60;;;33.49;36.20;95116.84;5023201;28;20650;-59
2022/08/04 10:09:17;;;;;;;4.93;2.20;;;32.60;51.60;;;33.65;34.89;95114.06;5022013;28;20251;-60
2022/08/04 10:11:58;;;;;;;3.28;3.08;;;32.90;50.30;;;33.81;34.80;95104.75;5020654;28;20222;-59
2022/08/04 10:14:40;;;;;;;8.32;3.15;;;33.10;49.50;;;34.01;34.01;95103.00;5022587;28;20216;-60
2022/08/04 10:17:36;;;;;;;5.03;2.80;;;33.20;48.80;;;34.10;33.13;95112.22;5019629;28;20790;-60
2022/08/04 10:20:08;;;;;;;2.85;2.65;;;33.30;48.10;;;34.09;33.58;95105.13;5018994;28;20211;-59
2022/08/04 10:22:38;;;;;;;7.40;3.03;;;33.40;48.50;;;33.99;33.42;95105.16;5020739;28;20245;-60
2022/08/04 10:25:15;;;;;;;2.78;2.33;;;33.30;47.20;;;33.96;31.62;95098.38;5019653;28;20660;-60
2022/08/04 10:27:48;;;;;;;3.20;2.63;;;33.30;45.70;;;33.90;32.69;95105.78;5017852;28;20292;-60
2022/08/04 10:30:17;;;;;;;3.70;3.40;;;33.20;45.80;;;33.87;33.10;95092.69;5020925;28;20197;-59
2022/08/04 10:32:47;;;;;;;3.97;2.03;;;33.10;46.00;;;33.87;31.40;95092.69;5017485;28;20229;-60
2022/08/04 10:35:16;;;;;;;2.25;2.15;;;33.10;44.80;;;33.83;30.02;95093.53;5020610;28;20666;-60
2022/08/04 10:37:48;;;;;;;3.92;2.10;;;33.10;43.00;;;33.67;31.50;95093.59;5018940;28;20232;-61
2022/08/04 10:40:39;;;;;;;2.55;2.20;;;33.00;43.60;;;33.51;30.54;95087.41;5020154;28;20225;-60
2022/08/04 10:43:13;;;;;;;3.30;2.50;;;32.90;42.80;;;33.37;30.44;95089.09;5020325;28;20295;-60
2022/08/04 10:45:44;;;;;;;4.10;2.30;;;32.70;43.10;;;33.32;32.20;95095.38;5018866;28;20313;-60
2022/08/04 10:48:19;;;;;;;4.47;2.58;;;32.60;45.10;;;33.28;30.52;95088.88;5022214;28;20293;-60
2022/08/04 10:50:56;;;;;;;2.83;2.72;;;32.50;43.30;;;33.20;32.08;95084.81;5018461;28;20205;-60
2022/08/04 10:53:24;;;;;;;3.95;2.20;;;32.50;44.40;;;33.11;30.22;95080.97;5023598;28;20213;-61
2022/08/04 10:55:57;;;;;;;2.55;2.13;;;32.40;42.00;;;32.98;31.16;95085.09;5017914;28;20202;-62
2022/08/04 10:58:30;;;;;;;5.03;1.90;;;32.30;43.70;;;32.85;30.10;95086.47;5017585;28;20705;-61
2022/08/04 11:00:58;;;;;;;2.83;2.63;;;32.20;41.60;;;32.73;31.25;95085.16;5021707;28;20201;-59
2022/08/04 11:03:30;;;;;;;3.05;2.53;;;32.00;43.10;;;32.64;31.29;95087.56;5019943;28;20225;-61
2022/08/04 11:06:01;;;;;;;3.85;2.00;;;31.90;43.50;;;32.66;31.64;95077.28;5021454;28;20201;-60